Current | Forecast
Updated: 1:17 AM JST on October 20, 2017
Observed at Shimofusa AB, Japan
Temperature 52°F
Humidity 100%
Dew Point 52°F
Wind NNW at 7 mph
Pressure 30.04 in (Falling)
Conditions Light Rain
Visibility -
UV 0 out of 16
Clouds Scattered Clouds (SCT) : 400 ft
Mostly Cloudy (BKN) : 800 ft
Yesterday's Maximum 54°F
Yesterday's Minimum 50°F approx.
Yesterday's Heating Degree Days 13 approx.
Sunrise5:51 AM JST
Sunset4:58 PM JST
Moon Rise5:54 AM JST
Moon Set5:32 PM JST
Moon PhaseMoon Phase
Waning Crescent
Raw METARSPECI RJTL 191617Z 34006KT 280V030 4900 -RA BR SCT004 BKN008 11/11 Q1017 RMK 4ST004 7ST008 A3004


Monday
. High: 77° F.
Tuesday
. High: 77° F.
Wednesday
. High: 66° F.
Thursday
. High: 73° F.
Friday
. High: 75° F.
Saturday
. High: 75° F.
Sunday
. High: 75° F.
Monday
. High: 71° F.

Units: English | Metric

Find the Weather for any City, State or Zipcode, or Country:

U.S. State List | Severe Weather | Tropical Storms | Ski Conditions
United States | Canada | Central America | South America | Asia | Europe | Australia | Africa | Islands

Weather Underground

© Copyright 2017
The Weather Company, LLC